createdAt,value
2018-06-18T00:02:29.654Z,7.80
2018-06-18T00:04:59.253Z,6.37
2018-06-18T00:07:29.140Z,12.13
2018-06-18T00:09:58.769Z,7.27
2018-06-18T00:12:28.462Z,7.50
2018-06-18T00:14:58.106Z,6.70
2018-06-18T00:17:27.792Z,6.23
2018-06-18T00:19:57.608Z,6.10
2018-06-18T00:22:27.236Z,8.90
2018-06-18T00:24:57.020Z,7.23
2018-06-18T00:27:26.761Z,5.77
2018-06-18T00:29:56.540Z,6.30
2018-06-18T00:32:26.232Z,7.40
2018-06-18T00:34:55.979Z,6.77
2018-06-18T00:37:25.757Z,6.63
2018-06-18T00:39:55.520Z,5.87
2018-06-18T00:42:25.282Z,6.73
2018-06-18T00:44:55.032Z,7.00
2018-06-18T00:47:24.723Z,6.73
2018-06-18T00:49:54.373Z,7.23
2018-06-18T00:52:24.100Z,10.30
2018-06-18T00:54:53.833Z,6.40
2018-06-18T00:57:23.484Z,6.30
2018-06-18T00:59:53.168Z,7.03
2018-06-18T01:02:22.951Z,5.97
2018-06-18T01:04:52.603Z,6.13
2018-06-18T01:07:22.273Z,7.20
2018-06-18T01:09:52.028Z,7.87
2018-06-18T01:12:21.817Z,6.93
2018-06-18T01:14:51.514Z,6.47
2018-06-18T01:17:21.137Z,7.20
2018-06-18T01:19:50.874Z,8.50
2018-06-18T01:22:20.582Z,6.67
2018-06-18T01:24:58.436Z,8.47
2018-06-18T01:27:28.268Z,6.00
2018-06-18T01:29:57.852Z,6.77
2018-06-18T01:32:27.509Z,7.23
2018-06-18T01:34:57.201Z,6.80
2018-06-18T01:37:26.823Z,6.80
2018-06-18T01:39:56.536Z,6.80
2018-06-18T01:42:26.412Z,6.70
2018-06-18T01:44:56.064Z,6.60
2018-06-18T01:47:25.755Z,6.20
2018-06-18T01:49:57.702Z,6.53
2018-06-18T01:52:32.296Z,7.00
2018-06-18T01:55:03.666Z,7.07
2018-06-18T01:57:33.415Z,7.30
2018-06-18T02:00:03.233Z,7.23
2018-06-18T02:02:32.890Z,7.17
2018-06-18T02:05:02.545Z,6.23
2018-06-18T02:07:32.313Z,7.13
2018-06-18T02:10:01.847Z,7.10
2018-06-18T02:12:31.447Z,7.37
2018-06-18T02:15:01.129Z,7.30
2018-06-18T02:17:30.796Z,7.50
2018-06-18T02:20:00.488Z,7.50
2018-06-18T02:22:30.202Z,7.67
2018-06-18T02:25:00.011Z,7.33
2018-06-18T02:27:34.637Z,6.73
2018-06-18T02:30:09.556Z,8.00
2018-06-18T02:32:44.298Z,8.17
2018-06-18T02:35:19.008Z,6.90
2018-06-18T02:37:53.604Z,8.50
2018-06-18T02:40:28.248Z,6.60
2018-06-18T02:42:58.041Z,7.00
2018-06-18T02:45:27.153Z,7.33
2018-06-18T02:47:56.800Z,6.33
2018-06-18T02:50:26.561Z,7.20
2018-06-18T02:52:56.214Z,6.70
2018-06-18T02:55:26.089Z,7.03
2018-06-18T02:57:55.841Z,6.10
2018-06-18T03:00:25.597Z,6.60
2018-06-18T03:02:55.244Z,6.83
2018-06-18T03:05:25.057Z,6.77
2018-06-18T03:07:54.732Z,7.50
2018-06-18T03:10:24.601Z,7.57
2018-06-18T03:12:54.361Z,7.00
2018-06-18T03:15:24.020Z,6.57
2018-06-18T03:17:53.772Z,5.80
2018-06-18T03:20:28.507Z,6.87
2018-06-18T03:23:03.388Z,5.90
2018-06-18T03:25:38.349Z,6.47
2018-06-18T03:28:13.168Z,10.43
2018-06-18T03:30:42.954Z,6.27
2018-06-18T03:33:12.822Z,8.10
2018-06-18T03:35:42.478Z,6.57
2018-06-18T03:38:12.263Z,6.90
2018-06-18T03:40:42.006Z,5.77
2018-06-18T03:43:11.800Z,7.67
2018-06-18T03:45:41.364Z,6.53
2018-06-18T03:48:12.667Z,6.53
2018-06-18T03:50:42.423Z,6.30
2018-06-18T03:53:12.083Z,6.53
2018-06-18T03:55:48.077Z,6.80
2018-06-18T03:58:17.853Z,6.53
2018-06-18T04:01:04.159Z,6.83
2018-06-18T04:03:38.916Z,5.73
2018-06-18T04:06:13.697Z,6.77
2018-06-18T04:08:43.531Z,7.93
2018-06-18T04:11:18.460Z,7.43
2018-06-18T04:13:48.169Z,6.30
2018-06-18T04:16:17.920Z,7.07
2018-06-18T04:18:51.793Z,6.23
2018-06-18T04:21:21.488Z,6.60
2018-06-18T04:23:51.294Z,6.00
2018-06-18T04:26:21.065Z,7.00
2018-06-18T04:28:50.257Z,6.20
2018-06-18T04:31:19.902Z,6.00
2018-06-18T04:33:58.693Z,7.10
2018-06-18T04:36:28.347Z,7.70
2018-06-18T04:38:58.051Z,7.27
2018-06-18T04:41:27.828Z,6.20
2018-06-18T04:44:02.441Z,5.60
2018-06-18T04:46:37.276Z,9.13
2018-06-18T04:49:12.192Z,6.80
2018-06-18T04:51:41.917Z,6.40
2018-06-18T04:54:11.596Z,6.93
2018-06-18T04:56:41.274Z,6.50
2018-06-18T04:59:10.948Z,7.50
2018-06-18T05:01:40.684Z,7.10
2018-06-18T05:04:10.475Z,6.13
2018-06-18T05:06:40.219Z,6.43
2018-06-18T05:09:51.367Z,5.87
2018-06-18T05:12:21.122Z,6.93
2018-06-18T05:14:51.173Z,5.57
2018-06-18T05:17:20.844Z,6.33
2018-06-18T05:19:50.634Z,6.17
2018-06-18T05:22:20.957Z,5.87
2018-06-18T05:24:52.472Z,6.23
2018-06-18T05:27:25.640Z,5.90
2018-06-18T05:29:55.639Z,7.30
2018-06-18T05:32:25.405Z,5.83
2018-06-18T05:34:55.063Z,5.50
2018-06-18T05:37:32.885Z,5.80
2018-06-18T05:40:02.588Z,6.63
2018-06-18T05:42:32.326Z,6.30
2018-06-18T05:45:02.044Z,6.10
2018-06-18T05:47:31.709Z,5.77
2018-06-18T05:50:01.380Z,5.97
2018-06-18T05:52:31.294Z,4.70
2018-06-18T05:55:01.042Z,6.63
2018-06-18T05:57:30.919Z,6.60
2018-06-18T06:00:00.565Z,5.20
2018-06-18T06:02:30.445Z,7.73
2018-06-18T06:05:00.170Z,7.60
2018-06-18T06:07:29.841Z,6.30
2018-06-18T06:09:59.602Z,7.13
2018-06-18T06:12:29.364Z,6.57
2018-06-18T06:14:59.029Z,5.97
2018-06-18T06:17:28.808Z,5.77
2018-06-18T06:19:58.542Z,5.43
2018-06-18T06:22:28.280Z,5.57
2018-06-18T06:24:58.048Z,5.20
2018-06-18T06:27:27.665Z,5.47
2018-06-18T06:29:57.363Z,5.73
2018-06-18T06:32:26.983Z,6.73
2018-06-18T06:35:01.653Z,5.30
2018-06-18T06:37:31.368Z,5.43
2018-06-18T06:40:01.005Z,5.10
2018-06-18T06:42:30.693Z,4.73
2018-06-18T06:45:00.448Z,6.20
2018-06-18T06:47:29.495Z,5.77
2018-06-18T06:49:59.110Z,5.17
2018-06-18T06:52:28.612Z,5.83
2018-06-18T06:54:58.256Z,5.40
2018-06-18T06:57:27.969Z,8.20
2018-06-18T06:59:57.684Z,5.47
2018-06-18T07:02:28.532Z,8.50
2018-06-18T07:04:58.321Z,5.23
2018-06-18T07:07:28.232Z,4.97
2018-06-18T07:09:57.941Z,6.37
2018-06-18T07:12:27.620Z,5.20
2018-06-18T07:14:57.359Z,4.90
2018-06-18T07:17:27.008Z,6.73
2018-06-18T07:19:57.129Z,4.70
2018-06-18T07:22:26.974Z,4.63
2018-06-18T07:24:56.681Z,7.03
2018-06-18T07:27:26.447Z,5.47
2018-06-18T07:29:56.136Z,12.80
2018-06-18T07:32:25.862Z,6.90
2018-06-18T07:34:55.674Z,5.43
2018-06-18T07:37:25.438Z,3.80
2018-06-18T07:39:55.472Z,6.10
2018-06-18T07:42:25.220Z,4.67
2018-06-18T07:44:55.033Z,3.70
2018-06-18T07:47:24.788Z,3.40
2018-06-18T07:49:54.429Z,3.80
2018-06-18T07:52:24.116Z,3.63
2018-06-18T07:54:53.855Z,4.07
2018-06-18T07:57:23.364Z,3.70
2018-06-18T07:59:53.234Z,4.00
2018-06-18T08:02:22.887Z,3.20
2018-06-18T08:04:52.594Z,2.73
2018-06-18T08:07:22.338Z,3.43
2018-06-18T08:09:52.159Z,3.43
2018-06-18T08:12:21.885Z,2.60
2018-06-18T08:14:51.139Z,3.43
2018-06-18T08:17:20.820Z,3.55
2018-06-18T08:19:50.605Z,3.15
2018-06-18T08:22:19.650Z,5.03
2018-06-18T08:24:50.794Z,3.42
2018-06-18T08:27:20.586Z,2.67
2018-06-18T08:29:50.321Z,3.67
2018-06-18T08:32:20.019Z,3.12
2018-06-18T08:34:49.849Z,3.50
2018-06-18T08:37:19.571Z,3.05
2018-06-18T08:39:49.512Z,6.12
2018-06-18T08:42:19.295Z,4.37
2018-06-18T08:44:49.136Z,5.30
2018-06-18T08:47:18.787Z,3.00
2018-06-18T08:49:53.508Z,5.30
2018-06-18T08:52:28.227Z,2.90
2018-06-18T08:55:02.919Z,3.00
2018-06-18T08:57:37.812Z,3.20
2018-06-18T09:01:16.643Z,4.03
2018-06-18T09:03:51.334Z,3.08
2018-06-18T09:06:20.953Z,2.70
2018-06-18T09:08:55.808Z,3.47
2018-06-18T09:11:25.945Z,2.90
2018-06-18T09:13:55.711Z,3.47
2018-06-18T09:16:25.428Z,2.45
2018-06-18T09:18:55.357Z,3.08
2018-06-18T09:21:25.148Z,2.52
2018-06-18T09:23:54.831Z,4.50
2018-06-18T09:26:24.564Z,2.62
2018-06-18T09:28:54.509Z,4.00
2018-06-18T09:31:24.210Z,2.08
2018-06-18T09:33:53.981Z,2.40
2018-06-18T09:36:23.628Z,2.15
2018-06-18T09:38:53.312Z,2.02
2018-06-18T09:41:23.048Z,2.27
2018-06-18T09:43:52.769Z,1.90
2018-06-18T09:46:22.681Z,3.17
2018-06-18T09:48:57.461Z,2.95
2018-06-18T09:51:32.208Z,2.50
2018-06-18T09:54:07.134Z,5.28
2018-06-18T09:56:41.890Z,3.12
2018-06-18T09:59:16.585Z,2.12
2018-06-18T10:01:46.389Z,1.90
2018-06-18T10:04:16.037Z,3.05
2018-06-18T10:06:45.831Z,3.25
2018-06-18T10:09:15.460Z,2.27
2018-06-18T10:11:45.252Z,2.02
2018-06-18T10:14:14.941Z,4.42
2018-06-18T10:16:44.772Z,2.58
2018-06-18T10:19:14.381Z,2.50
2018-06-18T10:21:44.064Z,2.67
2018-06-18T10:24:13.792Z,4.33
2018-06-18T10:26:43.484Z,2.40
2018-06-18T10:29:12.588Z,2.90
2018-06-18T10:31:42.333Z,2.33
2018-06-18T10:34:17.173Z,2.93
2018-06-18T10:36:51.899Z,3.83
2018-06-18T10:40:25.105Z,5.03
2018-06-18T10:42:59.905Z,5.30
2018-06-18T10:45:29.608Z,3.57
2018-06-18T10:47:59.445Z,3.70
2018-06-18T10:50:29.130Z,2.90
2018-06-18T10:52:59.045Z,6.10
2018-06-18T10:55:28.778Z,3.40
2018-06-18T10:57:58.641Z,4.57
2018-06-18T11:00:29.048Z,2.77
2018-06-18T11:02:58.785Z,3.37
2018-06-18T11:05:33.535Z,3.10
2018-06-18T11:08:03.160Z,3.00
2018-06-18T11:10:33.083Z,3.43
2018-06-18T11:13:02.884Z,2.60
2018-06-18T11:15:32.578Z,3.30
2018-06-18T11:18:07.354Z,4.33
2018-06-18T11:20:42.079Z,12.50
2018-06-18T11:23:16.835Z,3.10
2018-06-18T11:25:51.632Z,5.37
2018-06-18T11:28:21.376Z,5.57
2018-06-18T11:30:51.080Z,3.97
2018-06-18T11:33:20.746Z,3.13
2018-06-18T11:35:50.430Z,3.93
2018-06-18T11:38:20.120Z,3.30
2018-06-18T11:40:49.976Z,2.40
2018-06-18T11:43:19.790Z,2.60
2018-06-18T11:45:49.759Z,2.87
2018-06-18T11:48:20.972Z,3.57
2018-06-18T11:50:51.032Z,2.60
2018-06-18T11:53:21.266Z,4.13
2018-06-18T11:55:51.101Z,2.40
2018-06-18T11:58:26.061Z,2.40
2018-06-18T12:01:00.749Z,2.83
2018-06-18T12:03:35.597Z,3.90
2018-06-18T12:06:10.528Z,5.60
2018-06-18T12:08:45.141Z,2.77
2018-06-18T12:11:14.805Z,2.90
2018-06-18T12:13:44.371Z,4.67
2018-06-18T12:16:14.152Z,3.40
2018-06-18T12:18:43.796Z,5.63
2018-06-18T12:21:13.470Z,3.53
2018-06-18T12:23:43.148Z,2.57
2018-06-18T12:26:12.785Z,3.50
2018-06-18T12:28:42.397Z,2.13
2018-06-18T12:31:12.205Z,2.60
2018-06-18T12:33:41.842Z,2.10
2018-06-18T12:36:11.657Z,3.10
2018-06-18T12:38:41.518Z,2.00
2018-06-18T12:41:11.394Z,3.67
2018-06-18T12:43:42.834Z,2.73
2018-06-18T12:46:17.591Z,1.97
2018-06-18T12:48:52.248Z,2.30
2018-06-18T12:51:27.025Z,2.93
2018-06-18T12:54:01.718Z,2.60
2018-06-18T12:56:37.040Z,3.27
2018-06-18T12:59:06.877Z,2.30
2018-06-18T13:01:38.497Z,3.10
2018-06-18T13:04:09.212Z,2.40
2018-06-18T13:06:38.379Z,3.30
2018-06-18T13:09:09.489Z,2.30
2018-06-18T13:11:39.089Z,1.73
2018-06-18T13:14:08.758Z,3.43
2018-06-18T13:16:38.506Z,2.77
2018-06-18T13:19:08.041Z,2.73
2018-06-18T13:21:37.738Z,2.67
2018-06-18T13:24:07.520Z,7.10
2018-06-18T13:26:37.178Z,3.03
2018-06-18T13:29:07.040Z,1.60
2018-06-18T13:31:36.865Z,2.73
2018-06-18T13:34:06.577Z,2.37
2018-06-18T13:36:36.320Z,2.50
2018-06-18T13:39:13.469Z,1.80
2018-06-18T13:41:48.094Z,3.00
2018-06-18T13:44:22.967Z,1.77
2018-06-18T13:46:57.828Z,1.73
2018-06-18T13:49:32.220Z,2.53
2018-06-18T13:52:01.900Z,3.37
2018-06-18T13:54:31.589Z,1.70
2018-06-18T13:57:01.266Z,1.60
2018-06-18T13:59:31.093Z,1.80
2018-06-18T14:02:00.869Z,1.83
2018-06-18T14:04:30.583Z,3.47
2018-06-18T14:07:00.344Z,3.37
2018-06-18T14:09:30.436Z,3.37
2018-06-18T14:12:00.068Z,3.10
2018-06-18T14:14:29.704Z,3.97
2018-06-18T14:16:59.310Z,2.80
2018-06-18T14:19:34.181Z,2.83
2018-06-18T14:22:03.934Z,2.90
2018-06-18T14:24:33.589Z,3.73
2018-06-18T14:27:03.349Z,3.70
2018-06-18T14:29:38.077Z,2.93
2018-06-18T14:32:12.033Z,3.03
2018-06-18T14:34:46.789Z,3.00
2018-06-18T14:37:21.373Z,5.73
2018-06-18T14:39:55.220Z,3.10
2018-06-18T14:42:25.057Z,3.20
2018-06-18T14:44:54.670Z,3.30
2018-06-18T14:47:24.464Z,3.23
2018-06-18T14:49:54.196Z,4.07
2018-06-18T14:52:23.865Z,2.80
2018-06-18T14:54:53.142Z,4.90
2018-06-18T14:57:22.882Z,3.60
2018-06-18T14:59:57.744Z,6.23
2018-06-18T15:02:27.441Z,4.50
2018-06-18T15:04:56.596Z,3.00
2018-06-18T15:07:26.348Z,3.50
2018-06-18T15:09:55.977Z,2.87
2018-06-18T15:12:26.892Z,3.10
2018-06-18T15:15:01.771Z,4.37
2018-06-18T15:17:31.486Z,3.13
2018-06-18T15:20:01.170Z,3.03
2018-06-18T15:22:32.112Z,6.40
2018-06-18T15:25:05.147Z,2.30
2018-06-18T15:27:34.813Z,3.17
2018-06-18T15:30:04.644Z,3.30
2018-06-18T15:32:34.428Z,3.93
2018-06-18T15:35:04.117Z,3.73
2018-06-18T15:37:33.777Z,2.63
2018-06-18T15:40:03.578Z,2.60
2018-06-18T15:42:33.296Z,2.67
2018-06-18T15:45:03.109Z,3.20
2018-06-18T15:47:32.968Z,5.13
2018-06-18T15:50:02.612Z,2.37
2018-06-18T15:52:32.214Z,2.40
2018-06-18T15:55:01.789Z,3.10
2018-06-18T15:57:31.442Z,2.70
2018-06-18T16:00:01.230Z,2.60
2018-06-18T16:02:30.921Z,3.40
2018-06-18T16:05:00.566Z,2.40
2018-06-18T16:07:30.341Z,3.00
2018-06-18T16:09:59.993Z,3.93
2018-06-18T16:12:29.745Z,3.30
2018-06-18T16:14:59.190Z,2.80
2018-06-18T16:17:28.812Z,3.60
2018-06-18T16:19:58.600Z,2.30
2018-06-18T16:22:28.298Z,2.70
2018-06-18T16:24:57.884Z,3.03
2018-06-18T16:27:27.434Z,3.53
2018-06-18T16:29:57.125Z,2.67
2018-06-18T16:32:26.872Z,2.53
2018-06-18T16:34:56.413Z,2.47
2018-06-18T16:37:26.143Z,4.20
2018-06-18T16:39:55.905Z,2.40
2018-06-18T16:42:25.596Z,4.47
2018-06-18T16:44:55.269Z,3.20
2018-06-18T16:47:25.005Z,3.10
2018-06-18T16:49:54.685Z,3.33
2018-06-18T16:52:23.592Z,3.20
2018-06-18T16:54:53.249Z,2.60
2018-06-18T16:57:23.036Z,2.70
2018-06-18T16:59:52.765Z,3.07
2018-06-18T17:02:22.153Z,4.23
2018-06-18T17:04:51.504Z,2.40
2018-06-18T17:07:20.897Z,2.50
2018-06-18T17:09:50.262Z,3.50
2018-06-18T17:12:19.625Z,2.37
2018-06-18T17:14:49.036Z,3.13
2018-06-18T17:17:18.460Z,3.63
2018-06-18T17:19:47.820Z,5.10
2018-06-18T17:22:17.192Z,3.10
2018-06-18T17:24:46.569Z,3.07
2018-06-18T17:27:15.941Z,2.47
2018-06-18T17:29:45.309Z,3.80
2018-06-18T17:32:14.673Z,2.53
2018-06-18T17:34:44.031Z,4.70
2018-06-18T17:37:13.401Z,4.80
2018-06-18T17:39:42.766Z,6.67
2018-06-18T17:42:12.137Z,9.00
2018-06-18T17:44:41.512Z,10.03
2018-06-18T17:47:10.941Z,9.83
2018-06-18T17:49:40.318Z,4.83
2018-06-18T17:52:10.272Z,7.03
2018-06-18T17:54:40.322Z,2.93
2018-06-18T17:57:10.665Z,3.10
2018-06-18T17:59:40.883Z,2.70
2018-06-18T18:02:11.200Z,3.97
2018-06-18T18:04:41.649Z,3.93
2018-06-18T18:07:11.943Z,4.60
2018-06-18T18:09:42.279Z,2.93
2018-06-18T18:12:11.581Z,3.73
2018-06-18T18:14:42.067Z,4.63
2018-06-18T18:17:12.364Z,3.20
2018-06-18T18:19:44.099Z,4.10
2018-06-18T18:22:16.617Z,3.20
2018-06-18T18:24:45.977Z,3.30
2018-06-18T18:27:16.028Z,3.83
2018-06-18T18:29:46.267Z,3.27
2018-06-18T18:32:16.207Z,3.07
2018-06-18T18:34:45.974Z,4.67
2018-06-18T18:37:16.562Z,3.30
2018-06-18T18:39:46.724Z,4.40
2018-06-18T18:42:17.179Z,3.03
2018-06-18T18:44:46.592Z,3.83
2018-06-18T18:47:16.996Z,2.60
2018-06-18T18:49:47.146Z,3.40
2018-06-18T18:52:17.107Z,4.10
2018-06-18T18:56:00.224Z,3.30
2018-06-18T18:59:23.170Z,3.70
2018-06-18T19:01:53.256Z,3.80
2018-06-18T19:04:25.870Z,3.90
2018-06-18T19:06:55.335Z,3.80
2018-06-18T19:09:27.204Z,4.03
2018-06-18T19:11:56.640Z,4.30
2018-06-18T19:14:25.964Z,3.60
2018-06-18T19:16:55.349Z,4.50
2018-06-18T19:19:26.833Z,5.50
2018-06-18T19:21:56.228Z,4.47
2018-06-18T19:24:25.585Z,4.37
2018-06-18T19:26:54.994Z,3.30
2018-06-18T19:29:24.704Z,3.20
2018-06-18T19:31:54.426Z,3.23
2018-06-18T19:34:26.424Z,4.50
2018-06-18T19:36:56.988Z,4.63
2018-06-18T19:39:36.488Z,3.40
2018-06-18T19:42:05.961Z,5.47
2018-06-18T19:44:35.347Z,3.23
2018-06-18T19:47:16.766Z,3.30
2018-06-18T19:49:46.207Z,4.20
2018-06-18T19:52:15.581Z,4.23
2018-06-18T19:54:48.380Z,3.43
2018-06-18T19:57:17.778Z,3.43
2018-06-18T19:59:47.345Z,4.07
2018-06-18T20:02:16.974Z,5.63
2018-06-18T20:04:46.401Z,3.70
2018-06-18T20:07:16.048Z,3.50
2018-06-18T20:09:45.442Z,3.17
2018-06-18T20:12:14.833Z,3.20
2018-06-18T20:14:44.219Z,7.20
2018-06-18T20:17:13.604Z,6.10
2018-06-18T20:19:43.034Z,3.67
2018-06-18T20:22:12.416Z,3.50
2018-06-18T20:24:42.872Z,3.10
2018-06-18T20:27:12.472Z,4.23
2018-06-18T20:29:42.161Z,2.83
2018-06-18T20:32:12.001Z,4.07
2018-06-18T20:34:42.136Z,3.43
2018-06-18T20:37:11.549Z,2.80
2018-06-18T20:39:42.321Z,3.57
2018-06-18T20:42:11.686Z,3.37
2018-06-18T20:44:41.064Z,3.27
2018-06-18T20:47:10.461Z,2.47
2018-06-18T20:49:39.825Z,4.10
2018-06-18T20:52:09.711Z,2.97
2018-06-18T20:54:39.091Z,2.90
2018-06-18T20:57:08.942Z,2.70
2018-06-18T20:59:38.744Z,4.20
2018-06-18T21:02:08.175Z,4.20
2018-06-18T21:04:37.568Z,3.40
2018-06-18T21:07:06.941Z,2.97
2018-06-18T21:09:36.317Z,3.30
2018-06-18T21:12:05.734Z,2.90
2018-06-18T21:14:35.190Z,3.30
2018-06-18T21:17:04.613Z,3.93
2018-06-18T21:19:33.969Z,4.40
2018-06-18T21:22:03.488Z,3.40
2018-06-18T21:24:32.864Z,2.53
2018-06-18T21:27:02.236Z,2.77
2018-06-18T21:29:31.610Z,3.40
2018-06-18T21:32:00.993Z,3.20
2018-06-18T21:34:30.397Z,3.23
2018-06-18T21:36:59.781Z,2.83
2018-06-18T21:39:29.210Z,3.20
2018-06-18T21:41:58.637Z,6.93
2018-06-18T21:44:39.757Z,2.87
2018-06-18T21:47:09.142Z,3.20
2018-06-18T21:49:38.588Z,3.90
2018-06-18T21:52:07.968Z,4.13
2018-06-18T21:54:37.768Z,3.83
2018-06-18T21:57:07.137Z,2.67
2018-06-18T21:59:36.521Z,3.00
2018-06-18T22:02:05.925Z,3.97
2018-06-18T22:04:35.297Z,2.87
2018-06-18T22:07:04.679Z,4.53
2018-06-18T22:09:34.056Z,3.23
2018-06-18T22:12:03.571Z,4.27
2018-06-18T22:14:32.997Z,2.60
2018-06-18T22:17:02.361Z,3.43
2018-06-18T22:19:31.757Z,2.60
2018-06-18T22:22:01.144Z,2.77
2018-06-18T22:24:30.536Z,3.67
2018-06-18T22:26:59.950Z,2.87
2018-06-18T22:29:29.393Z,3.53
2018-06-18T22:31:58.820Z,4.27
2018-06-18T22:34:28.819Z,4.00
2018-06-18T22:36:58.626Z,3.70
2018-06-18T22:39:28.211Z,3.03
2018-06-18T22:41:58.056Z,3.13
2018-06-18T22:44:28.051Z,2.83
2018-06-18T22:46:57.897Z,2.93
2018-06-18T22:49:27.763Z,3.00
2018-06-18T22:51:57.553Z,3.33
2018-06-18T22:54:27.372Z,6.37
2018-06-18T22:56:57.629Z,2.47
2018-06-18T22:59:27.353Z,3.07
2018-06-18T23:01:59.132Z,3.33
2018-06-18T23:04:28.985Z,3.17
2018-06-18T23:06:58.624Z,3.17
2018-06-18T23:09:28.341Z,3.10
2018-06-18T23:11:58.145Z,3.20
2018-06-18T23:14:27.964Z,3.20
2018-06-18T23:16:57.891Z,2.97
2018-06-18T23:19:27.796Z,4.10
2018-06-18T23:21:57.619Z,3.10
2018-06-18T23:24:27.531Z,3.00
2018-06-18T23:26:57.468Z,3.43
2018-06-18T23:29:27.353Z,3.90
2018-06-18T23:31:58.100Z,2.83
2018-06-18T23:34:27.886Z,4.80
2018-06-18T23:36:57.565Z,3.27
2018-06-18T23:39:26.832Z,3.10
2018-06-18T23:41:57.959Z,3.27
2018-06-18T23:44:27.822Z,2.87
2018-06-18T23:46:57.578Z,3.20
2018-06-18T23:49:27.337Z,3.20
2018-06-18T23:51:56.994Z,2.53
2018-06-18T23:54:26.789Z,3.13
2018-06-18T23:56:56.508Z,3.30
2018-06-18T23:59:26.203Z,2.83
